Back to Top

Language: 

My Weather Underground Personal Weather Station Historical Data with Graphs...

Delerius Weather Station Historical Data
Daily Summary for January 27, 2017 Units:  Both    English   Metric
« Previous Day
Next Day »
Daily Weekly Monthly Yearly Custom
  High: Low: Average:
Temperature: 36.6 °F /  2.6 °C 27.4 °F /  -2.6 °C 31.9 °F /  -0.1 °C
Dew Point: 35.4 °F /  1.9 °C 25.6 °F /  -3.6 °C 30.6 °F /  -0.8 °C
Humidity: 97 % 91 % 95 %
Wind Speed: 8.0 mph /  12.9 km/h - 4.1 mph /  6.6 km/h
Wind Gust: -999.0 mph /  -1607.7 km/h - -
Wind:- - SE
Pressure: 29.97 in /  1014.8 hPa 29.76 in /  1007.7 hPa -
Precipitation: 0.03 in /  0.76 mm    
Historical Graphs
 
 
Tabular Data for January 27, 2017
Time Temperature Dew Point Pressure Wind Wind Speed Wind Gust Humidity Rainfall Rate (Hourly) solar Conditions
00:01 28.6 °F /  -1.9 °C 26.3 °F /  -3.2 °C 29.97 in /  1014.8 hPa SE 8.0 mph /  12.9 km/h -999.0 mph /  -1607.7 km/h 91 % 0.00 in /  0 mm 0 W/m2
00:06 28.6 °F /  -1.9 °C 26.3 °F /  -3.2 °C 29.97 in /  1014.8 hPa SE 8.0 mph /  12.9 km/h -999.0 mph /  -1607.7 km/h 91 % 0.00 in /  0 mm 0 W/m2
00:11 28.6 °F /  -1.9 °C 26.3 °F /  -3.2 °C 29.97 in /  1014.8 hPa SE 8.0 mph /  12.9 km/h -999.0 mph /  -1607.7 km/h 91 % 0.00 in /  0 mm 0 W/m2
00:16 28.6 °F /  -1.9 °C 26.3 °F /  -3.2 °C 29.97 in /  1014.8 hPa SE 8.0 mph /  12.9 km/h -999.0 mph /  -1607.7 km/h 91 % 0.00 in /  0 mm 0 W/m2
00:21 28.6 °F /  -1.9 °C 26.3 °F /  -3.2 °C 29.97 in /  1014.8 hPa SE 8.0 mph /  12.9 km/h -999.0 mph /  -1607.7 km/h 91 % 0.00 in /  0 mm 0 W/m2
00:26 28.4 °F /  -2 °C 26.1 °F /  -3.3 °C 29.97 in /  1014.8 hPa SE 8.0 mph /  12.9 km/h -999.0 mph /  -1607.7 km/h 91 % 0.00 in /  0 mm 0 W/m2
00:31 28.4 °F /  -2 °C 26.1 °F /  -3.3 °C 29.97 in /  1014.8 hPa SE 8.0 mph /  12.9 km/h -999.0 mph /  -1607.7 km/h 91 % 0.00 in /  0 mm 0 W/m2
00:36 28.4 °F /  -2 °C 26.1 °F /  -3.3 °C 29.97 in /  1014.8 hPa SE 8.0 mph /  12.9 km/h -999.0 mph /  -1607.7 km/h 91 % 0.00 in /  0 mm 0 W/m2
00:41 28.3 °F /  -2.1 °C 26.0 °F /  -3.3 °C 29.96 in /  1014.4 hPa SE 8.0 mph /  12.9 km/h -999.0 mph /  -1607.7 km/h 91 % 0.00 in /  0 mm 0 W/m2
00:46 28.3 °F /  -2.1 °C 26.0 °F /  -3.3 °C 29.96 in /  1014.4 hPa SE 8.0 mph /  12.9 km/h -999.0 mph /  -1607.7 km/h 91 % 0.00 in /  0 mm 0 W/m2
00:51 28.3 °F /  -2.1 °C 26.0 °F /  -3.3 °C 29.96 in /  1014.4 hPa SE 8.0 mph /  12.9 km/h -999.0 mph /  -1607.7 km/h 91 % 0.00 in /  0 mm 0 W/m2
00:56 28.2 °F /  -2.1 °C 25.9 °F /  -3.4 °C 29.95 in /  1014.1 hPa SE 7.0 mph /  11.3 km/h -999.0 mph /  -1607.7 km/h 91 % 0.00 in /  0 mm 0 W/m2
01:01 28.2 °F /  -2.1 °C 25.9 °F /  -3.4 °C 29.95 in /  1014.1 hPa SE 7.0 mph /  11.3 km/h -999.0 mph /  -1607.7 km/h 91 % 0.00 in /  0 mm 0 W/m2
01:06 28.2 °F /  -2.1 °C 25.9 °F /  -3.4 °C 29.95 in /  1014.1 hPa SE 7.0 mph /  11.3 km/h -999.0 mph /  -1607.7 km/h 91 % 0.00 in /  0 mm 0 W/m2
01:11 28.1 °F /  -2.2 °C 26.1 °F /  -3.3 °C 29.95 in /  1014.1 hPa SSE 4.0 mph /  6.4 km/h -999.0 mph /  -1607.7 km/h 92 % 0.00 in /  0 mm 0 W/m2
01:16 28.1 °F /  -2.2 °C 26.1 °F /  -3.3 °C 29.95 in /  1014.1 hPa SSE 4.0 mph /  6.4 km/h -999.0 mph /  -1607.7 km/h 92 % 0.00 in /  0 mm 0 W/m2
01:21 28.1 °F /  -2.2 °C 26.1 °F /  -3.3 °C 29.95 in /  1014.1 hPa SSE 4.0 mph /  6.4 km/h -999.0 mph /  -1607.7 km/h 92 % 0.00 in /  0 mm 0 W/m2
01:26 28.0 °F /  -2.2 °C 26.0 °F /  -3.3 °C 29.94 in /  1013.8 hPa SE 3.0 mph /  4.8 km/h -999.0 mph /  -1607.7 km/h 92 % 0.00 in /  0 mm 0 W/m2
01:31 28.0 °F /  -2.2 °C 26.0 °F /  -3.3 °C 29.94 in /  1013.8 hPa SE 3.0 mph /  4.8 km/h -999.0 mph /  -1607.7 km/h 92 % 0.00 in /  0 mm 0 W/m2
01:36 28.0 °F /  -2.2 °C 26.0 °F /  -3.3 °C 29.94 in /  1013.8 hPa SE 3.0 mph /  4.8 km/h -999.0 mph /  -1607.7 km/h 92 % 0.00 in /  0 mm 0 W/m2
01:41 27.9 °F /  -2.3 °C 25.9 °F /  -3.4 °C 29.93 in /  1013.4 hPa SE 3.0 mph /  4.8 km/h -999.0 mph /  -1607.7 km/h 92 % 0.00 in /  0 mm 0 W/m2
01:46 27.9 °F /  -2.3 °C 25.9 °F /  -3.4 °C 29.93 in /  1013.4 hPa SE 3.0 mph /  4.8 km/h -999.0 mph /  -1607.7 km/h 92 % 0.00 in /  0 mm 0 W/m2
01:51 27.9 °F /  -2.3 °C 25.9 °F /  -3.4 °C 29.93 in /  1013.4 hPa SE 3.0 mph /  4.8 km/h -999.0 mph /  -1607.7 km/h 92 % 0.00 in /  0 mm 0 W/m2
01:56 27.6 °F /  -2.4 °C 25.6 °F /  -3.6 °C 29.92 in /  1013.1 hPa East 2.0 mph /  3.2 km/h -999.0 mph /  -1607.7 km/h 92 % 0.00 in /  0 mm 0 W/m2
02:01 27.6 °F /  -2.4 °C 25.6 °F /  -3.6 °C 29.92 in /  1013.1 hPa East 2.0 mph /  3.2 km/h -999.0 mph /  -1607.7 km/h 92 % 0.00 in /  0 mm 0 W/m2
02:06 27.6 °F /  -2.4 °C 25.6 °F /  -3.6 °C 29.92 in /  1013.1 hPa East 2.0 mph /  3.2 km/h -999.0 mph /  -1607.7 km/h 92 % 0.00 in /  0 mm 0 W/m2
02:11 27.5 °F /  -2.5 °C 25.7 °F /  -3.5 °C 29.92 in /  1013.1 hPa ESE 3.0 mph /  4.8 km/h -999.0 mph /  -1607.7 km/h 93 % 0.00 in /  0 mm 0 W/m2
02:16 27.5 °F /  -2.5 °C 25.7 °F /  -3.5 °C 29.92 in /  1013.1 hPa ESE 3.0 mph /  4.8 km/h -999.0 mph /  -1607.7 km/h 93 % 0.00 in /  0 mm 0 W/m2
02:21 27.5 °F /  -2.5 °C 25.7 °F /  -3.5 °C 29.92 in /  1013.1 hPa ESE 3.0 mph /  4.8 km/h -999.0 mph /  -1607.7 km/h 93 % 0.00 in /  0 mm 0 W/m2
02:26 27.5 °F /  -2.5 °C 25.7 °F /  -3.5 °C 29.91 in /  1012.8 hPa ESE 2.0 mph /  3.2 km/h -999.0 mph /  -1607.7 km/h 93 % 0.00 in /  0 mm 0 W/m2
02:31 27.5 °F /  -2.5 °C 25.7 °F /  -3.5 °C 29.91 in /  1012.8 hPa ESE 2.0 mph /  3.2 km/h -999.0 mph /  -1607.7 km/h 93 % 0.00 in /  0 mm 0 W/m2
02:36 27.5 °F /  -2.5 °C 25.7 °F /  -3.5 °C 29.91 in /  1012.8 hPa ESE 2.0 mph /  3.2 km/h -999.0 mph /  -1607.7 km/h 93 % 0.00 in /  0 mm 0 W/m2
02:41 27.5 °F /  -2.5 °C 25.7 °F /  -3.5 °C 29.90 in /  1012.4 hPa ESE 1.0 mph /  1.6 km/h -999.0 mph /  -1607.7 km/h 93 % 0.00 in /  0 mm 0 W/m2
02:46 27.5 °F /  -2.5 °C 25.7 °F /  -3.5 °C 29.90 in /  1012.4 hPa ESE 1.0 mph /  1.6 km/h -999.0 mph /  -1607.7 km/h 93 % 0.00 in /  0 mm 0 W/m2
02:51 27.5 °F /  -2.5 °C 25.7 °F /  -3.5 °C 29.90 in /  1012.4 hPa ESE 1.0 mph /  1.6 km/h -999.0 mph /  -1607.7 km/h 93 % 0.00 in /  0 mm 0 W/m2
02:56 27.5 °F /  -2.5 °C 25.7 °F /  -3.5 °C 29.90 in /  1012.4 hPa ESE 1.0 mph /  1.6 km/h -999.0 mph /  -1607.7 km/h 93 % 0.00 in /  0 mm 0 W/m2
03:01 27.5 °F /  -2.5 °C 25.7 °F /  -3.5 °C 29.90 in /  1012.4 hPa ESE 1.0 mph /  1.6 km/h -999.0 mph /  -1607.7 km/h 93 % 0.00 in /  0 mm 0 W/m2
03:06 27.5 °F /  -2.5 °C 25.7 °F /  -3.5 °C 29.90 in /  1012.4 hPa ESE 1.0 mph /  1.6 km/h -999.0 mph /  -1607.7 km/h 93 % 0.00 in /  0 mm 0 W/m2
03:11 27.5 °F /  -2.5 °C 25.7 °F /  -3.5 °C 29.90 in /  1012.4 hPa ESE 3.0 mph /  4.8 km/h -999.0 mph /  -1607.7 km/h 93 % 0.00 in /  0 mm 0 W/m2
03:16 27.5 °F /  -2.5 °C 25.7 °F /  -3.5 °C 29.90 in /  1012.4 hPa ESE 3.0 mph /  4.8 km/h -999.0 mph /  -1607.7 km/h 93 % 0.00 in /  0 mm 0 W/m2
03:21 27.5 °F /  -2.5 °C 25.7 °F /  -3.5 °C 29.90 in /  1012.4 hPa ESE 3.0 mph /  4.8 km/h -999.0 mph /  -1607.7 km/h 93 % 0.00 in /  0 mm 0 W/m2
03:26 27.5 °F /  -2.5 °C 26.0 °F /  -3.3 °C 29.89 in /  1012.1 hPa ESE 4.0 mph /  6.4 km/h -999.0 mph /  -1607.7 km/h 94 % 0.00 in /  0 mm 0 W/m2
03:31 27.5 °F /  -2.5 °C 26.0 °F /  -3.3 °C 29.89 in /  1012.1 hPa ESE 4.0 mph /  6.4 km/h -999.0 mph /  -1607.7 km/h 94 % 0.00 in /  0 mm 0 W/m2
03:36 27.5 °F /  -2.5 °C 26.0 °F /  -3.3 °C 29.89 in /  1012.1 hPa ESE 4.0 mph /  6.4 km/h -999.0 mph /  -1607.7 km/h 94 % 0.00 in /  0 mm 0 W/m2
03:41 27.5 °F /  -2.5 °C 26.0 °F /  -3.3 °C 29.89 in /  1012.1 hPa ESE 5.0 mph /  8 km/h -999.0 mph /  -1607.7 km/h 94 % 0.00 in /  0 mm 0 W/m2
03:46 27.5 °F /  -2.5 °C 26.0 °F /  -3.3 °C 29.89 in /  1012.1 hPa ESE 5.0 mph /  8 km/h -999.0 mph /  -1607.7 km/h 94 % 0.00 in /  0 mm 0 W/m2
03:51 27.5 °F /  -2.5 °C 26.0 °F /  -3.3 °C 29.89 in /  1012.1 hPa ESE 5.0 mph /  8 km/h -999.0 mph /  -1607.7 km/h 94 % 0.00 in /  0 mm 0 W/m2
03:56 27.6 °F /  -2.4 °C 26.1 °F /  -3.3 °C 29.89 in /  1012.1 hPa ESE 5.0 mph /  8 km/h -999.0 mph /  -1607.7 km/h 94 % 0.00 in /  0 mm 0 W/m2
04:01 27.6 °F /  -2.4 °C 26.1 °F /  -3.3 °C 29.89 in /  1012.1 hPa ESE 5.0 mph /  8 km/h -999.0 mph /  -1607.7 km/h 94 % 0.00 in /  0 mm 0 W/m2
04:06 27.6 °F /  -2.4 °C 26.1 °F /  -3.3 °C 29.89 in /  1012.1 hPa ESE 5.0 mph /  8 km/h -999.0 mph /  -1607.7 km/h 94 % 0.00 in /  0 mm 0 W/m2
04:11 27.6 °F /  -2.4 °C 26.4 °F /  -3.1 °C 29.89 in /  1012.1 hPa ESE 4.0 mph /  6.4 km/h -999.0 mph /  -1607.7 km/h 95 % 0.00 in /  0 mm 0 W/m2
04:16 27.6 °F /  -2.4 °C 26.4 °F /  -3.1 °C 29.89 in /  1012.1 hPa ESE 4.0 mph /  6.4 km/h -999.0 mph /  -1607.7 km/h 95 % 0.00 in /  0 mm 0 W/m2
04:21 27.6 °F /  -2.4 °C 26.4 °F /  -3.1 °C 29.89 in /  1012.1 hPa ESE 4.0 mph /  6.4 km/h -999.0 mph /  -1607.7 km/h 95 % 0.00 in /  0 mm 0 W/m2
04:26 27.7 °F /  -2.4 °C 26.5 °F /  -3.1 °C 29.89 in /  1012.1 hPa ESE 4.0 mph /  6.4 km/h -999.0 mph /  -1607.7 km/h 95 % 0.00 in /  0 mm 0 W/m2
04:31 27.7 °F /  -2.4 °C 26.5 °F /  -3.1 °C 29.89 in /  1012.1 hPa ESE 4.0 mph /  6.4 km/h -999.0 mph /  -1607.7 km/h 95 % 0.00 in /  0 mm 0 W/m2
04:36 27.7 °F /  -2.4 °C 26.5 °F /  -3.1 °C 29.89 in /  1012.1 hPa ESE 4.0 mph /  6.4 km/h -999.0 mph /  -1607.7 km/h 95 % 0.00 in /  0 mm 0 W/m2
04:41 27.6 °F /  -2.4 °C 26.4 °F /  -3.1 °C 29.88 in /  1011.7 hPa SE 4.0 mph /  6.4 km/h -999.0 mph /  -1607.7 km/h 95 % 0.00 in /  0 mm 0 W/m2
04:46 27.6 °F /  -2.4 °C 26.4 °F /  -3.1 °C 29.88 in /  1011.7 hPa SE 4.0 mph /  6.4 km/h -999.0 mph /  -1607.7 km/h 95 % 0.00 in /  0 mm 0 W/m2
04:51 27.6 °F /  -2.4 °C 26.4 °F /  -3.1 °C 29.88 in /  1011.7 hPa SE 4.0 mph /  6.4 km/h -999.0 mph /  -1607.7 km/h 95 % 0.00 in /  0 mm 0 W/m2
04:56 27.5 °F /  -2.5 °C 26.3 °F /  -3.2 °C 29.88 in /  1011.7 hPa SE 2.0 mph /  3.2 km/h -999.0 mph /  -1607.7 km/h 95 % 0.00 in /  0 mm 0 W/m2
05:01 27.5 °F /  -2.5 °C 26.3 °F /  -3.2 °C 29.88 in /  1011.7 hPa SE 2.0 mph /  3.2 km/h -999.0 mph /  -1607.7 km/h 95 % 0.00 in /  0 mm 0 W/m2
05:06 27.5 °F /  -2.5 °C 26.3 °F /  -3.2 °C 29.88 in /  1011.7 hPa SE 2.0 mph /  3.2 km/h -999.0 mph /  -1607.7 km/h 95 % 0.00 in /  0 mm 0 W/m2
05:11 27.5 °F /  -2.5 °C 26.3 °F /  -3.2 °C 29.87 in /  1011.4 hPa SE 2.0 mph /  3.2 km/h -999.0 mph /  -1607.7 km/h 95 % 0.00 in /  0 mm 0 W/m2
05:16 27.5 °F /  -2.5 °C 26.3 °F /  -3.2 °C 29.87 in /  1011.4 hPa SE 2.0 mph /  3.2 km/h -999.0 mph /  -1607.7 km/h 95 % 0.00 in /  0 mm 0 W/m2
05:21 27.5 °F /  -2.5 °C 26.3 °F /  -3.2 °C 29.87 in /  1011.4 hPa SE 2.0 mph /  3.2 km/h -999.0 mph /  -1607.7 km/h 95 % 0.00 in /  0 mm 0 W/m2
05:26 27.5 °F /  -2.5 °C 26.3 °F /  -3.2 °C 29.86 in /  1011.1 hPa SE 4.0 mph /  6.4 km/h -999.0 mph /  -1607.7 km/h 95 % 0.00 in /  0 mm 0 W/m2
05:31 27.5 °F /  -2.5 °C 26.3 °F /  -3.2 °C 29.86 in /  1011.1 hPa SE 4.0 mph /  6.4 km/h -999.0 mph /  -1607.7 km/h 95 % 0.00 in /  0 mm 0 W/m2
05:36 27.5 °F /  -2.5 °C 26.3 °F /  -3.2 °C 29.86 in /  1011.1 hPa SE 4.0 mph /  6.4 km/h -999.0 mph /  -1607.7 km/h 95 % 0.00 in /  0 mm 0 W/m2
05:41 27.4 °F /  -2.6 °C 26.2 °F /  -3.2 °C 29.85 in /  1010.7 hPa SE 3.0 mph /  4.8 km/h -999.0 mph /  -1607.7 km/h 95 % 0.00 in /  0 mm 0 W/m2
05:46 27.4 °F /  -2.6 °C 26.2 °F /  -3.2 °C 29.85 in /  1010.7 hPa SE 3.0 mph /  4.8 km/h -999.0 mph /  -1607.7 km/h 95 % 0.00 in /  0 mm 0 W/m2
05:51 27.4 °F /  -2.6 °C 26.2 °F /  -3.2 °C 29.85 in /  1010.7 hPa SE 3.0 mph /  4.8 km/h -999.0 mph /  -1607.7 km/h 95 % 0.00 in /  0 mm 0 W/m2
05:56 27.5 °F /  -2.5 °C 26.5 °F /  -3.1 °C 29.85 in /  1010.7 hPa South 2.0 mph /  3.2 km/h -999.0 mph /  -1607.7 km/h 96 % 0.00 in /  0 mm 0 W/m2
06:01 27.5 °F /  -2.5 °C 26.5 °F /  -3.1 °C 29.85 in /  1010.7 hPa South 2.0 mph /  3.2 km/h -999.0 mph /  -1607.7 km/h 96 % 0.00 in /  0 mm 0 W/m2
06:06 27.5 °F /  -2.5 °C 26.5 °F /  -3.1 °C 29.85 in /  1010.7 hPa South 2.0 mph /  3.2 km/h -999.0 mph /  -1607.7 km/h 96 % 0.00 in /  0 mm 0 W/m2
06:11 27.7 °F /  -2.4 °C 26.7 °F /  -2.9 °C 29.85 in /  1010.7 hPa South 1.0 mph /  1.6 km/h -999.0 mph /  -1607.7 km/h 96 % 0.00 in /  0 mm 0 W/m2
06:16 27.7 °F /  -2.4 °C 26.7 °F /  -2.9 °C 29.85 in /  1010.7 hPa South 1.0 mph /  1.6 km/h -999.0 mph /  -1607.7 km/h 96 % 0.00 in /  0 mm 0 W/m2
06:21 27.7 °F /  -2.4 °C 26.7 °F /  -2.9 °C 29.85 in /  1010.7 hPa South 1.0 mph /  1.6 km/h -999.0 mph /  -1607.7 km/h 96 % 0.00 in /  0 mm 0 W/m2
06:26 27.8 °F /  -2.3 °C 26.8 °F /  -2.9 °C 29.85 in /  1010.7 hPa ESE 1.0 mph /  1.6 km/h -999.0 mph /  -1607.7 km/h 96 % 0.00 in /  0 mm 0 W/m2
06:31 27.8 °F /  -2.3 °C 26.8 °F /  -2.9 °C 29.85 in /  1010.7 hPa ESE 1.0 mph /  1.6 km/h -999.0 mph /  -1607.7 km/h 96 % 0.00 in /  0 mm 0 W/m2
06:36 27.8 °F /  -2.3 °C 26.8 °F /  -2.9 °C 29.85 in /  1010.7 hPa ESE 1.0 mph /  1.6 km/h -999.0 mph /  -1607.7 km/h 96 % 0.00 in /  0 mm 0 W/m2
06:41 28.0 °F /  -2.2 °C 27.0 °F /  -2.8 °C 29.85 in /  1010.7 hPa SE 2.0 mph /  3.2 km/h -999.0 mph /  -1607.7 km/h 96 % 0.00 in /  0 mm 0 W/m2
06:46 28.0 °F /  -2.2 °C 27.0 °F /  -2.8 °C 29.85 in /  1010.7 hPa SE 2.0 mph /  3.2 km/h -999.0 mph /  -1607.7 km/h 96 % 0.00 in /  0 mm 0 W/m2
06:51 28.0 °F /  -2.2 °C 27.0 °F /  -2.8 °C 29.85 in /  1010.7 hPa SE 2.0 mph /  3.2 km/h -999.0 mph /  -1607.7 km/h 96 % 0.00 in /  0 mm 0 W/m2
06:56 28.2 °F /  -2.1 °C 27.2 °F /  -2.7 °C 29.85 in /  1010.7 hPa SSE 3.0 mph /  4.8 km/h -999.0 mph /  -1607.7 km/h 96 % 0.00 in /  0 mm 0 W/m2
07:01 28.2 °F /  -2.1 °C 27.2 °F /  -2.7 °C 29.85 in /  1010.7 hPa SSE 3.0 mph /  4.8 km/h -999.0 mph /  -1607.7 km/h 96 % 0.00 in /  0 mm 0 W/m2
07:06 28.2 °F /  -2.1 °C 27.2 °F /  -2.7 °C 29.85 in /  1010.7 hPa SSE 3.0 mph /  4.8 km/h -999.0 mph /  -1607.7 km/h 96 % 0.00 in /  0 mm 0 W/m2
07:11 28.2 °F /  -2.1 °C 27.2 °F /  -2.7 °C 29.84 in /  1010.4 hPa SSE 1.0 mph /  1.6 km/h -999.0 mph /  -1607.7 km/h 96 % 0.00 in /  0 mm 0 W/m2
07:16 28.2 °F /  -2.1 °C 27.2 °F /  -2.7 °C 29.84 in /  1010.4 hPa SSE 1.0 mph /  1.6 km/h -999.0 mph /  -1607.7 km/h 96 % 0.00 in /  0 mm 0 W/m2
07:21 28.2 °F /  -2.1 °C 27.2 °F /  -2.7 °C 29.84 in /  1010.4 hPa SSE 1.0 mph /  1.6 km/h -999.0 mph /  -1607.7 km/h 96 % 0.00 in /  0 mm 0 W/m2
07:26 28.4 °F /  -2 °C 27.4 °F /  -2.6 °C 29.84 in /  1010.4 hPa SSE 1.0 mph /  1.6 km/h -999.0 mph /  -1607.7 km/h 96 % 0.00 in /  0 mm 0 W/m2
07:31 28.4 °F /  -2 °C 27.4 °F /  -2.6 °C 29.84 in /  1010.4 hPa SSE 1.0 mph /  1.6 km/h -999.0 mph /  -1607.7 km/h 96 % 0.00 in /  0 mm 0 W/m2
07:36 28.4 °F /  -2 °C 27.4 °F /  -2.6 °C 29.84 in /  1010.4 hPa SSE 1.0 mph /  1.6 km/h -999.0 mph /  -1607.7 km/h 96 % 0.00 in /  0 mm 0 W/m2
07:41 28.4 °F /  -2 °C 27.4 °F /  -2.6 °C 29.83 in /  1010 hPa SE 3.0 mph /  4.8 km/h -999.0 mph /  -1607.7 km/h 96 % 0.00 in /  0 mm 0 W/m2
07:46 28.4 °F /  -2 °C 27.4 °F /  -2.6 °C 29.83 in /  1010 hPa SE 3.0 mph /  4.8 km/h -999.0 mph /  -1607.7 km/h 96 % 0.00 in /  0 mm 0 W/m2
07:51 28.4 °F /  -2 °C 27.4 °F /  -2.6 °C 29.83 in /  1010 hPa SE 3.0 mph /  4.8 km/h -999.0 mph /  -1607.7 km/h 96 % 0.00 in /  0 mm 0 W/m2
07:56 28.3 °F /  -2.1 °C 27.3 °F /  -2.6 °C 29.83 in /  1010 hPa SE 4.0 mph /  6.4 km/h -999.0 mph /  -1607.7 km/h 96 % 0.00 in /  0 mm 0 W/m2
08:01 28.3 °F /  -2.1 °C 27.3 °F /  -2.6 °C 29.83 in /  1010 hPa SE 4.0 mph /  6.4 km/h -999.0 mph /  -1607.7 km/h 96 % 0.00 in /  0 mm 0 W/m2
08:06 28.3 °F /  -2.1 °C 27.3 °F /  -2.6 °C 29.83 in /  1010 hPa SE 4.0 mph /  6.4 km/h -999.0 mph /  -1607.7 km/h 96 % 0.00 in /  0 mm 0 W/m2
08:11 28.4 °F /  -2 °C 27.4 °F /  -2.6 °C 29.83 in /  1010 hPa SSE 6.0 mph /  9.7 km/h -999.0 mph /  -1607.7 km/h 96 % 0.00 in /  0 mm 0 W/m2
08:16 28.4 °F /  -2 °C 27.4 °F /  -2.6 °C 29.83 in /  1010 hPa SSE 6.0 mph /  9.7 km/h -999.0 mph /  -1607.7 km/h 96 % 0.00 in /  0 mm 0 W/m2
08:21 28.4 °F /  -2 °C 27.4 °F /  -2.6 °C 29.83 in /  1010 hPa SSE 6.0 mph /  9.7 km/h -999.0 mph /  -1607.7 km/h 96 % 0.00 in /  0 mm 0 W/m2
08:26 28.3 °F /  -2.1 °C 27.3 °F /  -2.6 °C 29.82 in /  1009.7 hPa SSE 5.0 mph /  8 km/h -999.0 mph /  -1607.7 km/h 96 % 0.00 in /  0 mm 3 W/m2
08:31 28.3 °F /  -2.1 °C 27.3 °F /  -2.6 °C 29.82 in /  1009.7 hPa SSE 5.0 mph /  8 km/h -999.0 mph /  -1607.7 km/h 96 % 0.00 in /  0 mm 3 W/m2
08:36 28.3 °F /  -2.1 °C 27.3 °F /  -2.6 °C 29.82 in /  1009.7 hPa SSE 5.0 mph /  8 km/h -999.0 mph /  -1607.7 km/h 96 % 0.00 in /  0 mm 3 W/m2
08:41 28.4 °F /  -2 °C 27.7 °F /  -2.4 °C 29.82 in /  1009.7 hPa South 3.0 mph /  4.8 km/h -999.0 mph /  -1607.7 km/h 97 % 0.00 in /  0 mm 9 W/m2
08:46 28.4 °F /  -2 °C 27.7 °F /  -2.4 °C 29.82 in /  1009.7 hPa South 3.0 mph /  4.8 km/h -999.0 mph /  -1607.7 km/h 97 % 0.00 in /  0 mm 9 W/m2
08:51 28.4 °F /  -2 °C 27.7 °F /  -2.4 °C 29.82 in /  1009.7 hPa South 3.0 mph /  4.8 km/h -999.0 mph /  -1607.7 km/h 97 % 0.00 in /  0 mm 9 W/m2
08:56 28.6 °F /  -1.9 °C 27.9 °F /  -2.3 °C 29.82 in /  1009.7 hPa South 2.0 mph /  3.2 km/h -999.0 mph /  -1607.7 km/h 97 % 0.00 in /  0 mm 16 W/m2
09:01 28.6 °F /  -1.9 °C 27.9 °F /  -2.3 °C 29.82 in /  1009.7 hPa South 2.0 mph /  3.2 km/h -999.0 mph /  -1607.7 km/h 97 % 0.00 in /  0 mm 16 W/m2
09:06 28.6 °F /  -1.9 °C 27.9 °F /  -2.3 °C 29.82 in /  1009.7 hPa South 2.0 mph /  3.2 km/h -999.0 mph /  -1607.7 km/h 97 % 0.00 in /  0 mm 16 W/m2
09:11 28.8 °F /  -1.8 °C 28.1 °F /  -2.2 °C 29.82 in /  1009.7 hPa South 4.0 mph /  6.4 km/h -999.0 mph /  -1607.7 km/h 97 % 0.00 in /  0 mm 30 W/m2
09:16 28.8 °F /  -1.8 °C 28.1 °F /  -2.2 °C 29.82 in /  1009.7 hPa South 4.0 mph /  6.4 km/h -999.0 mph /  -1607.7 km/h 97 % 0.00 in /  0 mm 30 W/m2
09:21 28.8 °F /  -1.8 °C 28.1 °F /  -2.2 °C 29.82 in /  1009.7 hPa South 4.0 mph /  6.4 km/h -999.0 mph /  -1607.7 km/h 97 % 0.00 in /  0 mm 30 W/m2
09:26 28.8 °F /  -1.8 °C 28.1 °F /  -2.2 °C 29.81 in /  1009.4 hPa ESE 3.0 mph /  4.8 km/h -999.0 mph /  -1607.7 km/h 97 % 0.00 in /  0 mm 30 W/m2
09:31 28.8 °F /  -1.8 °C 28.1 °F /  -2.2 °C 29.81 in /  1009.4 hPa ESE 3.0 mph /  4.8 km/h -999.0 mph /  -1607.7 km/h 97 % 0.00 in /  0 mm 30 W/m2
09:36 28.8 °F /  -1.8 °C 28.1 °F /  -2.2 °C 29.81 in /  1009.4 hPa ESE 3.0 mph /  4.8 km/h -999.0 mph /  -1607.7 km/h 97 % 0.00 in /  0 mm 30 W/m2
09:41 29.0 °F /  -1.7 °C 28.3 °F /  -2.1 °C 29.82 in /  1009.7 hPa SSE 4.0 mph /  6.4 km/h -999.0 mph /  -1607.7 km/h 97 % 0.00 in /  0 mm 30 W/m2
09:46 29.0 °F /  -1.7 °C 28.3 °F /  -2.1 °C 29.82 in /  1009.7 hPa SSE 4.0 mph /  6.4 km/h -999.0 mph /  -1607.7 km/h 97 % 0.00 in /  0 mm 30 W/m2
09:51 29.0 °F /  -1.7 °C 28.3 °F /  -2.1 °C 29.82 in /  1009.7 hPa SSE 4.0 mph /  6.4 km/h -999.0 mph /  -1607.7 km/h 97 % 0.00 in /  0 mm 30 W/m2
09:56 29.1 °F /  -1.6 °C 28.4 °F /  -2 °C 29.81 in /  1009.4 hPa SSW 1.0 mph /  1.6 km/h -999.0 mph /  -1607.7 km/h 97 % 0.00 in /  0 mm 33 W/m2
10:01 29.1 °F /  -1.6 °C 28.4 °F /  -2 °C 29.81 in /  1009.4 hPa SSW 1.0 mph /  1.6 km/h -999.0 mph /  -1607.7 km/h 97 % 0.00 in /  0 mm 33 W/m2
10:06 29.1 °F /  -1.6 °C 28.4 °F /  -2 °C 29.81 in /  1009.4 hPa SSW 1.0 mph /  1.6 km/h -999.0 mph /  -1607.7 km/h 97 % 0.00 in /  0 mm 33 W/m2
10:11 29.3 °F /  -1.5 °C 28.6 °F /  -1.9 °C 29.81 in /  1009.4 hPa SE 3.0 mph /  4.8 km/h -999.0 mph /  -1607.7 km/h 97 % 0.00 in /  0 mm 43 W/m2
10:16 29.3 °F /  -1.5 °C 28.6 °F /  -1.9 °C 29.81 in /  1009.4 hPa SE 3.0 mph /  4.8 km/h -999.0 mph /  -1607.7 km/h 97 % 0.00 in /  0 mm 43 W/m2
10:21 29.3 °F /  -1.5 °C 28.6 °F /  -1.9 °C 29.81 in /  1009.4 hPa SE 3.0 mph /  4.8 km/h -999.0 mph /  -1607.7 km/h 97 % 0.00 in /  0 mm 43 W/m2
10:26 29.6 °F /  -1.3 °C 28.9 °F /  -1.7 °C 29.81 in /  1009.4 hPa SE 3.0 mph /  4.8 km/h -999.0 mph /  -1607.7 km/h 97 % 0.00 in /  0 mm 46 W/m2
10:31 29.6 °F /  -1.3 °C 28.9 °F /  -1.7 °C 29.81 in /  1009.4 hPa SE 3.0 mph /  4.8 km/h -999.0 mph /  -1607.7 km/h 97 % 0.00 in /  0 mm 46 W/m2
10:36 29.6 °F /  -1.3 °C 28.9 °F /  -1.7 °C 29.81 in /  1009.4 hPa SE 3.0 mph /  4.8 km/h -999.0 mph /  -1607.7 km/h 97 % 0.00 in /  0 mm 46 W/m2
10:41 29.9 °F /  -1.2 °C 29.2 °F /  -1.6 °C 29.81 in /  1009.4 hPa SE 4.0 mph /  6.4 km/h -999.0 mph /  -1607.7 km/h 97 % 0.00 in /  0 mm 48 W/m2
10:46 29.9 °F /  -1.2 °C 29.2 °F /  -1.6 °C 29.81 in /  1009.4 hPa SE 4.0 mph /  6.4 km/h -999.0 mph /  -1607.7 km/h 97 % 0.00 in /  0 mm 48 W/m2
10:51 29.9 °F /  -1.2 °C 29.2 °F /  -1.6 °C 29.81 in /  1009.4 hPa SE 4.0 mph /  6.4 km/h -999.0 mph /  -1607.7 km/h 97 % 0.00 in /  0 mm 48 W/m2
10:56 30.1 °F /  -1.1 °C 29.4 °F /  -1.4 °C 29.81 in /  1009.4 hPa SE 5.0 mph /  8 km/h -999.0 mph /  -1607.7 km/h 97 % 0.00 in /  0 mm 49 W/m2
11:01 30.1 °F /  -1.1 °C 29.4 °F /  -1.4 °C 29.81 in /  1009.4 hPa SE 5.0 mph /  8 km/h -999.0 mph /  -1607.7 km/h 97 % 0.00 in /  0 mm 49 W/m2
11:06 30.1 °F /  -1.1 °C 29.4 °F /  -1.4 °C 29.81 in /  1009.4 hPa SE 5.0 mph /  8 km/h -999.0 mph /  -1607.7 km/h 97 % 0.00 in /  0 mm 49 W/m2
11:11 30.4 °F /  -0.9 °C 29.7 °F /  -1.3 °C 29.81 in /  1009.4 hPa SE 6.0 mph /  9.7 km/h -999.0 mph /  -1607.7 km/h 97 % 0.00 in /  0 mm 56 W/m2
11:16 30.4 °F /  -0.9 °C 29.7 °F /  -1.3 °C 29.81 in /  1009.4 hPa SE 6.0 mph /  9.7 km/h -999.0 mph /  -1607.7 km/h 97 % 0.00 in /  0 mm 56 W/m2
11:21 30.4 °F /  -0.9 °C 29.7 °F /  -1.3 °C 29.81 in /  1009.4 hPa SE 6.0 mph /  9.7 km/h -999.0 mph /  -1607.7 km/h 97 % 0.00 in /  0 mm 56 W/m2
11:26 30.8 °F /  -0.7 °C 30.0 °F /  -1.1 °C 29.81 in /  1009.4 hPa SSE 5.0 mph /  8 km/h -999.0 mph /  -1607.7 km/h 97 % 0.00 in /  0 mm 58 W/m2
11:31 30.8 °F /  -0.7 °C 30.0 °F /  -1.1 °C 29.81 in /  1009.4 hPa SSE 5.0 mph /  8 km/h -999.0 mph /  -1607.7 km/h 97 % 0.00 in /  0 mm 58 W/m2
11:36 30.8 °F /  -0.7 °C 30.0 °F /  -1.1 °C 29.81 in /  1009.4 hPa SSE 5.0 mph /  8 km/h -999.0 mph /  -1607.7 km/h 97 % 0.00 in /  0 mm 58 W/m2
11:41 31.2 °F /  -0.4 °C 30.4 °F /  -0.9 °C 29.80 in /  1009 hPa South 5.0 mph /  8 km/h -999.0 mph /  -1607.7 km/h 97 % 0.00 in /  0 mm 67 W/m2
11:46 31.2 °F /  -0.4 °C 30.4 °F /  -0.9 °C 29.80 in /  1009 hPa South 5.0 mph /  8 km/h -999.0 mph /  -1607.7 km/h 97 % 0.00 in /  0 mm 67 W/m2
11:51 31.2 °F /  -0.4 °C 30.4 °F /  -0.9 °C 29.80 in /  1009 hPa South 5.0 mph /  8 km/h -999.0 mph /  -1607.7 km/h 97 % 0.00 in /  0 mm 67 W/m2
11:56 31.7 °F /  -0.2 °C 30.9 °F /  -0.6 °C 29.79 in /  1008.7 hPa SSE 3.0 mph /  4.8 km/h -999.0 mph /  -1607.7 km/h 97 % 0.00 in /  0 mm 66 W/m2
12:01 31.7 °F /  -0.2 °C 30.9 °F /  -0.6 °C 29.79 in /  1008.7 hPa SSE 3.0 mph /  4.8 km/h -999.0 mph /  -1607.7 km/h 97 % 0.00 in /  0 mm 66 W/m2
12:06 31.7 °F /  -0.2 °C 30.9 °F /  -0.6 °C 29.79 in /  1008.7 hPa SSE 3.0 mph /  4.8 km/h -999.0 mph /  -1607.7 km/h 97 % 0.00 in /  0 mm 66 W/m2
12:11 32.1 °F /  0.1 °C 31.3 °F /  -0.4 °C 29.79 in /  1008.7 hPa South 2.0 mph /  3.2 km/h -999.0 mph /  -1607.7 km/h 97 % 0.00 in /  0 mm 63 W/m2
12:16 32.1 °F /  0.1 °C 31.3 °F /  -0.4 °C 29.79 in /  1008.7 hPa South 2.0 mph /  3.2 km/h -999.0 mph /  -1607.7 km/h 97 % 0.00 in /  0 mm 63 W/m2
12:21 32.1 °F /  0.1 °C 31.3 °F /  -0.4 °C 29.79 in /  1008.7 hPa South 2.0 mph /  3.2 km/h -999.0 mph /  -1607.7 km/h 97 % 0.00 in /  0 mm 63 W/m2
12:26 32.4 °F /  0.2 °C 31.6 °F /  -0.2 °C 29.79 in /  1008.7 hPa South 2.0 mph /  3.2 km/h -999.0 mph /  -1607.7 km/h 97 % 0.00 in /  0 mm 49 W/m2
12:31 32.4 °F /  0.2 °C 31.6 °F /  -0.2 °C 29.79 in /  1008.7 hPa South 2.0 mph /  3.2 km/h -999.0 mph /  -1607.7 km/h 97 % 0.00 in /  0 mm 49 W/m2
12:36 32.4 °F /  0.2 °C 31.6 °F /  -0.2 °C 29.79 in /  1008.7 hPa South 2.0 mph /  3.2 km/h -999.0 mph /  -1607.7 km/h 97 % 0.00 in /  0 mm 49 W/m2
12:41 32.9 °F /  0.5 °C 32.1 °F /  0.1 °C 29.79 in /  1008.7 hPa South 1.0 mph /  1.6 km/h -999.0 mph /  -1607.7 km/h 97 % 0.00 in /  0 mm 61 W/m2
12:46 32.9 °F /  0.5 °C 32.1 °F /  0.1 °C 29.79 in /  1008.7 hPa South 1.0 mph /  1.6 km/h -999.0 mph /  -1607.7 km/h 97 % 0.00 in /  0 mm 61 W/m2
12:51 32.9 °F /  0.5 °C 32.1 °F /  0.1 °C 29.79 in /  1008.7 hPa South 1.0 mph /  1.6 km/h -999.0 mph /  -1607.7 km/h 97 % 0.00 in /  0 mm 61 W/m2
12:56 33.4 °F /  0.8 °C 32.6 °F /  0.3 °C 29.79 in /  1008.7 hPa SSE 2.0 mph /  3.2 km/h -999.0 mph /  -1607.7 km/h 97 % 0.00 in /  0 mm 67 W/m2
13:01 33.4 °F /  0.8 °C 32.6 °F /  0.3 °C 29.79 in /  1008.7 hPa SSE 2.0 mph /  3.2 km/h -999.0 mph /  -1607.7 km/h 97 % 0.00 in /  0 mm 67 W/m2
13:06 33.4 °F /  0.8 °C 32.6 °F /  0.3 °C 29.79 in /  1008.7 hPa SSE 2.0 mph /  3.2 km/h -999.0 mph /  -1607.7 km/h 97 % 0.00 in /  0 mm 67 W/m2
13:11 34.1 °F /  1.2 °C 33.3 °F /  0.7 °C 29.79 in /  1008.7 hPa SSE 6.0 mph /  9.7 km/h -999.0 mph /  -1607.7 km/h 97 % 0.00 in /  0 mm 65 W/m2
13:16 34.1 °F /  1.2 °C 33.3 °F /  0.7 °C 29.79 in /  1008.7 hPa SSE 6.0 mph /  9.7 km/h -999.0 mph /  -1607.7 km/h 97 % 0.00 in /  0 mm 65 W/m2
13:21 34.1 °F /  1.2 °C 33.3 °F /  0.7 °C 29.79 in /  1008.7 hPa SSE 6.0 mph /  9.7 km/h -999.0 mph /  -1607.7 km/h 97 % 0.00 in /  0 mm 65 W/m2
13:26 34.5 °F /  1.4 °C 33.7 °F /  0.9 °C 29.78 in /  1008.4 hPa SE 5.0 mph /  8 km/h -999.0 mph /  -1607.7 km/h 97 % 0.00 in /  0 mm 50 W/m2
13:31 34.5 °F /  1.4 °C 33.7 °F /  0.9 °C 29.78 in /  1008.4 hPa SE 5.0 mph /  8 km/h -999.0 mph /  -1607.7 km/h 97 % 0.00 in /  0 mm 50 W/m2
13:36 34.5 °F /  1.4 °C 33.7 °F /  0.9 °C 29.78 in /  1008.4 hPa SE 5.0 mph /  8 km/h -999.0 mph /  -1607.7 km/h 97 % 0.00 in /  0 mm 50 W/m2
13:41 34.7 °F /  1.5 °C 33.7 °F /  0.9 °C 29.77 in /  1008 hPa South 7.0 mph /  11.3 km/h -999.0 mph /  -1607.7 km/h 96 % 0.00 in /  0 mm 59 W/m2
13:46 34.7 °F /  1.5 °C 33.7 °F /  0.9 °C 29.77 in /  1008 hPa South 7.0 mph /  11.3 km/h -999.0 mph /  -1607.7 km/h 96 % 0.00 in /  0 mm 59 W/m2
13:51 34.7 °F /  1.5 °C 33.7 °F /  0.9 °C 29.77 in /  1008 hPa South 7.0 mph /  11.3 km/h -999.0 mph /  -1607.7 km/h 96 % 0.00 in /  0 mm 59 W/m2
13:56 34.8 °F /  1.6 °C 33.5 °F /  0.8 °C 29.77 in /  1008 hPa South 6.0 mph /  9.7 km/h -999.0 mph /  -1607.7 km/h 95 % 0.00 in /  0 mm 55 W/m2
14:01 34.8 °F /  1.6 °C 33.5 °F /  0.8 °C 29.77 in /  1008 hPa South 6.0 mph /  9.7 km/h -999.0 mph /  -1607.7 km/h 95 % 0.00 in /  0 mm 55 W/m2
14:06 34.8 °F /  1.6 °C 33.5 °F /  0.8 °C 29.77 in /  1008 hPa South 6.0 mph /  9.7 km/h -999.0 mph /  -1607.7 km/h 95 % 0.00 in /  0 mm 55 W/m2
14:11 35.0 °F /  1.7 °C 33.7 °F /  0.9 °C 29.77 in /  1008 hPa South 7.0 mph /  11.3 km/h -999.0 mph /  -1607.7 km/h 95 % 0.00 in /  0 mm 67 W/m2
14:16 35.0 °F /  1.7 °C 33.7 °F /  0.9 °C 29.77 in /  1008 hPa South 7.0 mph /  11.3 km/h -999.0 mph /  -1607.7 km/h 95 % 0.00 in /  0 mm 67 W/m2
14:21 35.0 °F /  1.7 °C 33.7 °F /  0.9 °C 29.77 in /  1008 hPa South 7.0 mph /  11.3 km/h -999.0 mph /  -1607.7 km/h 95 % 0.00 in /  0 mm 67 W/m2
14:26 35.3 °F /  1.8 °C 33.7 °F /  0.9 °C 29.77 in /  1008 hPa SSE 6.0 mph /  9.7 km/h -999.0 mph /  -1607.7 km/h 94 % 0.00 in /  0 mm 72 W/m2
14:31 35.3 °F /  1.8 °C 33.7 °F /  0.9 °C 29.77 in /  1008 hPa SSE 6.0 mph /  9.7 km/h -999.0 mph /  -1607.7 km/h 94 % 0.00 in /  0 mm 72 W/m2
14:36 35.3 °F /  1.8 °C 33.7 °F /  0.9 °C 29.77 in /  1008 hPa SSE 6.0 mph /  9.7 km/h -999.0 mph /  -1607.7 km/h 94 % 0.00 in /  0 mm 72 W/m2
14:41 35.6 °F /  2 °C 34.0 °F /  1.1 °C 29.78 in /  1008.4 hPa SSE 5.0 mph /  8 km/h -999.0 mph /  -1607.7 km/h 94 % 0.00 in /  0 mm 51 W/m2
14:46 35.6 °F /  2 °C 34.0 °F /  1.1 °C 29.78 in /  1008.4 hPa SSE 5.0 mph /  8 km/h -999.0 mph /  -1607.7 km/h 94 % 0.00 in /  0 mm 51 W/m2
14:51 35.6 °F /  2 °C 34.0 °F /  1.1 °C 29.78 in /  1008.4 hPa SSE 5.0 mph /  8 km/h -999.0 mph /  -1607.7 km/h 94 % 0.00 in /  0 mm 51 W/m2
14:56 35.8 °F /  2.1 °C 34.0 °F /  1.1 °C 29.77 in /  1008 hPa SSE 4.0 mph /  6.4 km/h -999.0 mph /  -1607.7 km/h 93 % 0.00 in /  0 mm 32 W/m2
15:01 35.8 °F /  2.1 °C 34.0 °F /  1.1 °C 29.77 in /  1008 hPa SSE 4.0 mph /  6.4 km/h -999.0 mph /  -1607.7 km/h 93 % 0.00 in /  0 mm 32 W/m2
15:06 35.8 °F /  2.1 °C 34.0 °F /  1.1 °C 29.77 in /  1008 hPa SSE 4.0 mph /  6.4 km/h -999.0 mph /  -1607.7 km/h 93 % 0.00 in /  0 mm 32 W/m2
15:11 35.9 °F /  2.2 °C 34.1 °F /  1.2 °C 29.78 in /  1008.4 hPa SSE 5.0 mph /  8 km/h -999.0 mph /  -1607.7 km/h 93 % 0.00 in /  0 mm 39 W/m2
15:16 35.9 °F /  2.2 °C 34.1 °F /  1.2 °C 29.78 in /  1008.4 hPa SSE 5.0 mph /  8 km/h -999.0 mph /  -1607.7 km/h 93 % 0.00 in /  0 mm 39 W/m2
15:21 35.9 °F /  2.2 °C 34.1 °F /  1.2 °C 29.78 in /  1008.4 hPa SSE 5.0 mph /  8 km/h -999.0 mph /  -1607.7 km/h 93 % 0.00 in /  0 mm 39 W/m2
15:26 36.0 °F /  2.2 °C 34.2 °F /  1.2 °C 29.78 in /  1008.4 hPa SE 4.0 mph /  6.4 km/h -999.0 mph /  -1607.7 km/h 93 % 0.00 in /  0 mm 26 W/m2
15:31 36.0 °F /  2.2 °C 34.2 °F /  1.2 °C 29.78 in /  1008.4 hPa SE 4.0 mph /  6.4 km/h -999.0 mph /  -1607.7 km/h 93 % 0.00 in /  0 mm 26 W/m2
15:36 36.0 °F /  2.2 °C 34.2 °F /  1.2 °C 29.78 in /  1008.4 hPa SE 4.0 mph /  6.4 km/h -999.0 mph /  -1607.7 km/h 93 % 0.00 in /  0 mm 26 W/m2
15:41 36.2 °F /  2.3 °C 34.4 °F /  1.3 °C 29.79 in /  1008.7 hPa ESE 4.0 mph /  6.4 km/h -999.0 mph /  -1607.7 km/h 93 % 0.00 in /  0 mm 16 W/m2
15:46 36.2 °F /  2.3 °C 34.4 °F /  1.3 °C 29.79 in /  1008.7 hPa ESE 4.0 mph /  6.4 km/h -999.0 mph /  -1607.7 km/h 93 % 0.00 in /  0 mm 16 W/m2
15:51 36.2 °F /  2.3 °C 34.4 °F /  1.3 °C 29.79 in /  1008.7 hPa ESE 4.0 mph /  6.4 km/h -999.0 mph /  -1607.7 km/h 93 % 0.00 in /  0 mm 16 W/m2
15:56 36.3 °F /  2.4 °C 34.5 °F /  1.4 °C 29.78 in /  1008.4 hPa ESE 5.0 mph /  8 km/h -999.0 mph /  -1607.7 km/h 93 % 0.00 in /  0 mm 11 W/m2
16:01 36.3 °F /  2.4 °C 34.5 °F /  1.4 °C 29.78 in /  1008.4 hPa ESE 5.0 mph /  8 km/h -999.0 mph /  -1607.7 km/h 93 % 0.00 in /  0 mm 11 W/m2
16:06 36.3 °F /  2.4 °C 34.5 °F /  1.4 °C 29.78 in /  1008.4 hPa ESE 5.0 mph /  8 km/h -999.0 mph /  -1607.7 km/h 93 % 0.00 in /  0 mm 11 W/m2
16:11 36.2 °F /  2.3 °C 34.4 °F /  1.3 °C 29.79 in /  1008.7 hPa ESE 3.0 mph /  4.8 km/h -999.0 mph /  -1607.7 km/h 93 % 0.00 in /  0 mm 8 W/m2
16:16 36.2 °F /  2.3 °C 34.4 °F /  1.3 °C 29.79 in /  1008.7 hPa ESE 3.0 mph /  4.8 km/h -999.0 mph /  -1607.7 km/h 93 % 0.00 in /  0 mm 8 W/m2
16:21 36.2 °F /  2.3 °C 34.4 °F /  1.3 °C 29.79 in /  1008.7 hPa ESE 3.0 mph /  4.8 km/h -999.0 mph /  -1607.7 km/h 93 % 0.00 in /  0 mm 8 W/m2
16:26 36.2 °F /  2.3 °C 34.4 °F /  1.3 °C 29.79 in /  1008.7 hPa ESE 5.0 mph /  8 km/h -999.0 mph /  -1607.7 km/h 93 % 0.00 in /  0 mm 5 W/m2
16:31 36.2 °F /  2.3 °C 34.4 °F /  1.3 °C 29.79 in /  1008.7 hPa ESE 5.0 mph /  8 km/h -999.0 mph /  -1607.7 km/h 93 % 0.00 in /  0 mm 5 W/m2
16:36 36.2 °F /  2.3 °C 34.4 °F /  1.3 °C 29.79 in /  1008.7 hPa ESE 5.0 mph /  8 km/h -999.0 mph /  -1607.7 km/h 93 % 0.00 in /  0 mm 5 W/m2
16:41 36.2 °F /  2.3 °C 34.6 °F /  1.4 °C 29.79 in /  1008.7 hPa ESE 5.0 mph /  8 km/h -999.0 mph /  -1607.7 km/h 94 % 0.00 in /  0 mm 0 W/m2
16:46 36.2 °F /  2.3 °C 34.6 °F /  1.4 °C 29.79 in /  1008.7 hPa ESE 5.0 mph /  8 km/h -999.0 mph /  -1607.7 km/h 94 % 0.00 in /  0 mm 0 W/m2
16:51 36.2 °F /  2.3 °C 34.6 °F /  1.4 °C 29.79 in /  1008.7 hPa ESE 5.0 mph /  8 km/h -999.0 mph /  -1607.7 km/h 94 % 0.00 in /  0 mm 0 W/m2
16:56 36.3 °F /  2.4 °C 34.7 °F /  1.5 °C 29.79 in /  1008.7 hPa ESE 5.0 mph /  8 km/h -999.0 mph /  -1607.7 km/h 94 % 0.00 in /  0 mm 0 W/m2
17:01 36.3 °F /  2.4 °C 34.7 °F /  1.5 °C 29.79 in /  1008.7 hPa ESE 5.0 mph /  8 km/h -999.0 mph /  -1607.7 km/h 94 % 0.00 in /  0 mm 0 W/m2
17:06 36.3 °F /  2.4 °C 34.7 °F /  1.5 °C 29.79 in /  1008.7 hPa ESE 5.0 mph /  8 km/h -999.0 mph /  -1607.7 km/h 94 % 0.00 in /  0 mm 0 W/m2
17:11 36.4 °F /  2.4 °C 34.8 °F /  1.6 °C 29.78 in /  1008.4 hPa SE 6.0 mph /  9.7 km/h -999.0 mph /  -1607.7 km/h 94 % 0.00 in /  0 mm 0 W/m2
17:16 36.4 °F /  2.4 °C 34.8 °F /  1.6 °C 29.78 in /  1008.4 hPa SE 6.0 mph /  9.7 km/h -999.0 mph /  -1607.7 km/h 94 % 0.00 in /  0 mm 0 W/m2
17:21 36.4 °F /  2.4 °C 34.8 °F /  1.6 °C 29.78 in /  1008.4 hPa SE 6.0 mph /  9.7 km/h -999.0 mph /  -1607.7 km/h 94 % 0.00 in /  0 mm 0 W/m2
17:26 36.5 °F /  2.5 °C 34.9 °F /  1.6 °C 29.79 in /  1008.7 hPa SE 6.0 mph /  9.7 km/h -999.0 mph /  -1607.7 km/h 94 % 0.00 in /  0 mm 0 W/m2
17:31 36.5 °F /  2.5 °C 34.9 °F /  1.6 °C 29.79 in /  1008.7 hPa SE 6.0 mph /  9.7 km/h -999.0 mph /  -1607.7 km/h 94 % 0.00 in /  0 mm 0 W/m2
17:36 36.5 °F /  2.5 °C 34.9 °F /  1.6 °C 29.79 in /  1008.7 hPa SE 6.0 mph /  9.7 km/h -999.0 mph /  -1607.7 km/h 94 % 0.00 in /  0 mm 0 W/m2
17:41 36.6 °F /  2.6 °C 35.0 °F /  1.7 °C 29.80 in /  1009 hPa SE 8.0 mph /  12.9 km/h -999.0 mph /  -1607.7 km/h 94 % 0.00 in /  0 mm 0 W/m2
17:46 36.6 °F /  2.6 °C 35.0 °F /  1.7 °C 29.80 in /  1009 hPa SE 8.0 mph /  12.9 km/h -999.0 mph /  -1607.7 km/h 94 % 0.00 in /  0 mm 0 W/m2
17:51 36.6 °F /  2.6 °C 35.0 °F /  1.7 °C 29.80 in /  1009 hPa SE 8.0 mph /  12.9 km/h -999.0 mph /  -1607.7 km/h 94 % 0.00 in /  0 mm 0 W/m2
17:56 36.5 °F /  2.5 °C 34.7 °F /  1.5 °C 29.81 in /  1009.4 hPa SE 7.0 mph /  11.3 km/h -999.0 mph /  -1607.7 km/h 93 % 0.00 in /  0 mm 0 W/m2
18:01 36.5 °F /  2.5 °C 34.7 °F /  1.5 °C 29.81 in /  1009.4 hPa SE 7.0 mph /  11.3 km/h -999.0 mph /  -1607.7 km/h 93 % 0.00 in /  0 mm 0 W/m2
18:06 36.5 °F /  2.5 °C 34.7 °F /  1.5 °C 29.81 in /  1009.4 hPa SE 7.0 mph /  11.3 km/h -999.0 mph /  -1607.7 km/h 93 % 0.00 in /  0 mm 0 W/m2
18:11 36.3 °F /  2.4 °C 34.5 °F /  1.4 °C 29.80 in /  1009 hPa SE 6.0 mph /  9.7 km/h -999.0 mph /  -1607.7 km/h 93 % 0.00 in /  0 mm 0 W/m2
18:16 36.3 °F /  2.4 °C 34.5 °F /  1.4 °C 29.80 in /  1009 hPa SE 6.0 mph /  9.7 km/h -999.0 mph /  -1607.7 km/h 93 % 0.00 in /  0 mm 0 W/m2
18:21 36.3 °F /  2.4 °C 34.5 °F /  1.4 °C 29.80 in /  1009 hPa SE 6.0 mph /  9.7 km/h -999.0 mph /  -1607.7 km/h 93 % 0.00 in /  0 mm 0 W/m2
18:26 36.1 °F /  2.3 °C 34.3 °F /  1.3 °C 29.80 in /  1009 hPa SE 6.0 mph /  9.7 km/h -999.0 mph /  -1607.7 km/h 93 % 0.00 in /  0 mm 0 W/m2
18:31 36.1 °F /  2.3 °C 34.3 °F /  1.3 °C 29.80 in /  1009 hPa SE 6.0 mph /  9.7 km/h -999.0 mph /  -1607.7 km/h 93 % 0.00 in /  0 mm 0 W/m2
18:36 36.1 °F /  2.3 °C 34.3 °F /  1.3 °C 29.80 in /  1009 hPa SE 6.0 mph /  9.7 km/h -999.0 mph /  -1607.7 km/h 93 % 0.00 in /  0 mm 0 W/m2
18:41 35.9 °F /  2.2 °C 34.1 °F /  1.2 °C 29.80 in /  1009 hPa SE 6.0 mph /  9.7 km/h -999.0 mph /  -1607.7 km/h 93 % 0.00 in /  0 mm 0 W/m2
18:46 35.9 °F /  2.2 °C 34.1 °F /  1.2 °C 29.80 in /  1009 hPa SE 6.0 mph /  9.7 km/h -999.0 mph /  -1607.7 km/h 93 % 0.00 in /  0 mm 0 W/m2
18:51 35.9 °F /  2.2 °C 34.1 °F /  1.2 °C 29.80 in /  1009 hPa SE 6.0 mph /  9.7 km/h -999.0 mph /  -1607.7 km/h 93 % 0.00 in /  0 mm 0 W/m2
18:56 35.9 °F /  2.2 °C 34.3 °F /  1.3 °C 29.80 in /  1009 hPa SE 5.0 mph /  8 km/h -999.0 mph /  -1607.7 km/h 94 % 0.00 in /  0 mm 0 W/m2
19:01 35.9 °F /  2.2 °C 34.3 °F /  1.3 °C 29.80 in /  1009 hPa SE 5.0 mph /  8 km/h -999.0 mph /  -1607.7 km/h 94 % 0.00 in /  0 mm 0 W/m2
19:06 35.9 °F /  2.2 °C 34.3 °F /  1.3 °C 29.80 in /  1009 hPa SE 5.0 mph /  8 km/h -999.0 mph /  -1607.7 km/h 94 % 0.00 in /  0 mm 0 W/m2
19:11 35.8 °F /  2.1 °C 34.2 °F /  1.2 °C 29.81 in /  1009.4 hPa SE 6.0 mph /  9.7 km/h -999.0 mph /  -1607.7 km/h 94 % 0.00 in /  0 mm 0 W/m2
19:16 35.8 °F /  2.1 °C 34.2 °F /  1.2 °C 29.81 in /  1009.4 hPa SE 6.0 mph /  9.7 km/h -999.0 mph /  -1607.7 km/h 94 % 0.00 in /  0 mm 0 W/m2
19:21 35.8 °F /  2.1 °C 34.2 °F /  1.2 °C 29.81 in /  1009.4 hPa SE 6.0 mph /  9.7 km/h -999.0 mph /  -1607.7 km/h 94 % 0.00 in /  0 mm 0 W/m2
19:26 35.8 °F /  2.1 °C 34.2 °F /  1.2 °C 29.80 in /  1009 hPa SE 7.0 mph /  11.3 km/h -999.0 mph /  -1607.7 km/h 94 % 0.00 in /  0 mm 0 W/m2
19:31 35.8 °F /  2.1 °C 34.2 °F /  1.2 °C 29.80 in /  1009 hPa SE 7.0 mph /  11.3 km/h -999.0 mph /  -1607.7 km/h 94 % 0.00 in /  0 mm 0 W/m2
19:36 35.8 °F /  2.1 °C 34.2 °F /  1.2 °C 29.80 in /  1009 hPa SE 7.0 mph /  11.3 km/h -999.0 mph /  -1607.7 km/h 94 % 0.00 in /  0 mm 0 W/m2
19:41 35.7 °F /  2.1 °C 34.1 °F /  1.2 °C 29.80 in /  1009 hPa SE 5.0 mph /  8 km/h -999.0 mph /  -1607.7 km/h 94 % 0.00 in /  0 mm 0 W/m2
19:46 35.7 °F /  2.1 °C 34.1 °F /  1.2 °C 29.80 in /  1009 hPa SE 5.0 mph /  8 km/h -999.0 mph /  -1607.7 km/h 94 % 0.00 in /  0 mm 0 W/m2
19:51 35.7 °F /  2.1 °C 34.1 °F /  1.2 °C 29.80 in /  1009 hPa SE 5.0 mph /  8 km/h -999.0 mph /  -1607.7 km/h 94 % 0.00 in /  0 mm 0 W/m2
19:56 35.7 °F /  2.1 °C 34.4 °F /  1.3 °C 29.80 in /  1009 hPa SE 6.0 mph /  9.7 km/h -999.0 mph /  -1607.7 km/h 95 % 0.00 in /  0 mm 0 W/m2
20:01 35.7 °F /  2.1 °C 34.4 °F /  1.3 °C 29.80 in /  1009 hPa SE 6.0 mph /  9.7 km/h -999.0 mph /  -1607.7 km/h 95 % 0.00 in /  0 mm 0 W/m2
20:06 35.7 °F /  2.1 °C 34.4 °F /  1.3 °C 29.80 in /  1009 hPa SE 6.0 mph /  9.7 km/h -999.0 mph /  -1607.7 km/h 95 % 0.00 in /  0 mm 0 W/m2
20:11 35.7 °F /  2.1 °C 34.4 °F /  1.3 °C 29.80 in /  1009 hPa SE 6.0 mph /  9.7 km/h -999.0 mph /  -1607.7 km/h 95 % 0.00 in /  0 mm 0 W/m2
20:16 35.7 °F /  2.1 °C 34.4 °F /  1.3 °C 29.80 in /  1009 hPa SE 6.0 mph /  9.7 km/h -999.0 mph /  -1607.7 km/h 95 % 0.00 in /  0 mm 0 W/m2
20:21 35.7 °F /  2.1 °C 34.4 °F /  1.3 °C 29.80 in /  1009 hPa SE 6.0 mph /  9.7 km/h -999.0 mph /  -1607.7 km/h 95 % 0.00 in /  0 mm 0 W/m2
20:26 35.7 °F /  2.1 °C 34.4 °F /  1.3 °C 29.79 in /  1008.7 hPa SE 5.0 mph /  8 km/h -999.0 mph /  -1607.7 km/h 95 % 0.00 in /  0 mm 0 W/m2
20:31 35.7 °F /  2.1 °C 34.4 °F /  1.3 °C 29.79 in /  1008.7 hPa SE 5.0 mph /  8 km/h -999.0 mph /  -1607.7 km/h 95 % 0.00 in /  0 mm 0 W/m2
20:36 35.7 °F /  2.1 °C 34.4 °F /  1.3 °C 29.79 in /  1008.7 hPa SE 5.0 mph /  8 km/h -999.0 mph /  -1607.7 km/h 95 % 0.00 in /  0 mm 0 W/m2
20:41 35.7 °F /  2.1 °C 34.4 °F /  1.3 °C 29.79 in /  1008.7 hPa SE 4.0 mph /  6.4 km/h -999.0 mph /  -1607.7 km/h 95 % 0.01 in /  0.25 mm 0 W/m2
20:46 35.7 °F /  2.1 °C 34.4 °F /  1.3 °C 29.79 in /  1008.7 hPa SE 4.0 mph /  6.4 km/h -999.0 mph /  -1607.7 km/h 95 % 0.01 in /  0.25 mm 0 W/m2
20:51 35.7 °F /  2.1 °C 34.4 °F /  1.3 °C 29.79 in /  1008.7 hPa SE 4.0 mph /  6.4 km/h -999.0 mph /  -1607.7 km/h 95 % 0.01 in /  0.25 mm 0 W/m2
20:56 35.7 °F /  2.1 °C 34.7 °F /  1.5 °C 29.79 in /  1008.7 hPa SE 4.0 mph /  6.4 km/h -999.0 mph /  -1607.7 km/h 96 % 0.01 in /  0.25 mm 0 W/m2
21:01 35.7 °F /  2.1 °C 34.7 °F /  1.5 °C 29.79 in /  1008.7 hPa SE 4.0 mph /  6.4 km/h -999.0 mph /  -1607.7 km/h 96 % 0.01 in /  0.25 mm 0 W/m2
21:06 35.7 °F /  2.1 °C 34.7 °F /  1.5 °C 29.79 in /  1008.7 hPa SE 4.0 mph /  6.4 km/h -999.0 mph /  -1607.7 km/h 96 % 0.01 in /  0.25 mm 0 W/m2
21:11 35.7 °F /  2.1 °C 34.7 °F /  1.5 °C 29.79 in /  1008.7 hPa ESE 3.0 mph /  4.8 km/h -999.0 mph /  -1607.7 km/h 96 % 0.01 in /  0.25 mm 0 W/m2
21:16 35.7 °F /  2.1 °C 34.7 °F /  1.5 °C 29.79 in /  1008.7 hPa ESE 3.0 mph /  4.8 km/h -999.0 mph /  -1607.7 km/h 96 % 0.01 in /  0.25 mm 0 W/m2
21:26 35.7 °F /  2.1 °C 34.7 °F /  1.5 °C 29.79 in /  1008.7 hPa SE 3.0 mph /  4.8 km/h -999.0 mph /  -1607.7 km/h 96 % 0.02 in /  0.51 mm 0 W/m2
21:31 35.7 °F /  2.1 °C 34.7 °F /  1.5 °C 29.79 in /  1008.7 hPa SE 3.0 mph /  4.8 km/h -999.0 mph /  -1607.7 km/h 96 % 0.02 in /  0.51 mm 0 W/m2
21:36 35.7 °F /  2.1 °C 34.7 °F /  1.5 °C 29.79 in /  1008.7 hPa SE 3.0 mph /  4.8 km/h -999.0 mph /  -1607.7 km/h 96 % 0.02 in /  0.51 mm 0 W/m2
21:41 35.8 °F /  2.1 °C 34.8 °F /  1.6 °C 29.78 in /  1008.4 hPa SE 4.0 mph /  6.4 km/h -999.0 mph /  -1607.7 km/h 96 % 0.02 in /  0.51 mm 0 W/m2
21:46 35.8 °F /  2.1 °C 34.8 °F /  1.6 °C 29.78 in /  1008.4 hPa SE 4.0 mph /  6.4 km/h -999.0 mph /  -1607.7 km/h 96 % 0.02 in /  0.51 mm 0 W/m2
21:51 35.8 °F /  2.1 °C 34.8 °F /  1.6 °C 29.78 in /  1008.4 hPa SE 4.0 mph /  6.4 km/h -999.0 mph /  -1607.7 km/h 96 % 0.02 in /  0.51 mm 0 W/m2
21:56 35.8 °F /  2.1 °C 34.8 °F /  1.6 °C 29.78 in /  1008.4 hPa SE 5.0 mph /  8 km/h -999.0 mph /  -1607.7 km/h 96 % 0.02 in /  0.51 mm 0 W/m2
22:01 35.8 °F /  2.1 °C 34.8 °F /  1.6 °C 29.78 in /  1008.4 hPa SE 5.0 mph /  8 km/h -999.0 mph /  -1607.7 km/h 96 % 0.02 in /  0.51 mm 0 W/m2
22:06 35.8 °F /  2.1 °C 34.8 °F /  1.6 °C 29.78 in /  1008.4 hPa SE 5.0 mph /  8 km/h -999.0 mph /  -1607.7 km/h 96 % 0.02 in /  0.51 mm 0 W/m2
22:11 35.8 °F /  2.1 °C 34.8 °F /  1.6 °C 29.78 in /  1008.4 hPa SE 4.0 mph /  6.4 km/h -999.0 mph /  -1607.7 km/h 96 % 0.02 in /  0.51 mm 0 W/m2
22:16 35.8 °F /  2.1 °C 34.8 °F /  1.6 °C 29.78 in /  1008.4 hPa SE 4.0 mph /  6.4 km/h -999.0 mph /  -1607.7 km/h 96 % 0.02 in /  0.51 mm 0 W/m2
22:21 35.8 °F /  2.1 °C 34.8 °F /  1.6 °C 29.78 in /  1008.4 hPa SE 4.0 mph /  6.4 km/h -999.0 mph /  -1607.7 km/h 96 % 0.02 in /  0.51 mm 0 W/m2
22:26 35.8 °F /  2.1 °C 34.8 °F /  1.6 °C 29.77 in /  1008 hPa SE 4.0 mph /  6.4 km/h -999.0 mph /  -1607.7 km/h 96 % 0.01 in /  0.25 mm 0 W/m2
22:31 35.8 °F /  2.1 °C 34.8 °F /  1.6 °C 29.77 in /  1008 hPa SE 4.0 mph /  6.4 km/h -999.0 mph /  -1607.7 km/h 96 % 0.01 in /  0.25 mm 0 W/m2
22:36 35.8 °F /  2.1 °C 34.8 °F /  1.6 °C 29.77 in /  1008 hPa SE 4.0 mph /  6.4 km/h -999.0 mph /  -1607.7 km/h 96 % 0.01 in /  0.25 mm 0 W/m2
22:41 35.9 °F /  2.2 °C 35.1 °F /  1.7 °C 29.77 in /  1008 hPa SE 4.0 mph /  6.4 km/h -999.0 mph /  -1607.7 km/h 97 % 0.00 in /  0 mm 0 W/m2
22:46 35.9 °F /  2.2 °C 35.1 °F /  1.7 °C 29.77 in /  1008 hPa SE 4.0 mph /  6.4 km/h -999.0 mph /  -1607.7 km/h 97 % 0.00 in /  0 mm 0 W/m2
22:51 35.9 °F /  2.2 °C 35.1 °F /  1.7 °C 29.77 in /  1008 hPa SE 4.0 mph /  6.4 km/h -999.0 mph /  -1607.7 km/h 97 % 0.00 in /  0 mm 0 W/m2
22:56 36.0 °F /  2.2 °C 35.2 °F /  1.8 °C 29.77 in /  1008 hPa SE 2.0 mph /  3.2 km/h -999.0 mph /  -1607.7 km/h 97 % 0.00 in /  0 mm 0 W/m2
23:01 36.0 °F /  2.2 °C 35.2 °F /  1.8 °C 29.77 in /  1008 hPa SE 2.0 mph /  3.2 km/h -999.0 mph /  -1607.7 km/h 97 % 0.00 in /  0 mm 0 W/m2
23:06 36.0 °F /  2.2 °C 35.2 °F /  1.8 °C 29.77 in /  1008 hPa SE 2.0 mph /  3.2 km/h -999.0 mph /  -1607.7 km/h 97 % 0.00 in /  0 mm 0 W/m2
23:11 36.1 °F /  2.3 °C 35.3 °F /  1.8 °C 29.77 in /  1008 hPa ESE 2.0 mph /  3.2 km/h -999.0 mph /  -1607.7 km/h 97 % 0.01 in /  0.25 mm 0 W/m2
23:16 36.1 °F /  2.3 °C 35.3 °F /  1.8 °C 29.77 in /  1008 hPa ESE 2.0 mph /  3.2 km/h -999.0 mph /  -1607.7 km/h 97 % 0.01 in /  0.25 mm 0 W/m2
23:21 36.1 °F /  2.3 °C 35.3 °F /  1.8 °C 29.77 in /  1008 hPa ESE 2.0 mph /  3.2 km/h -999.0 mph /  -1607.7 km/h 97 % 0.01 in /  0.25 mm 0 W/m2
23:26 36.1 °F /  2.3 °C 35.3 °F /  1.8 °C 29.77 in /  1008 hPa ESE 1.0 mph /  1.6 km/h -999.0 mph /  -1607.7 km/h 97 % 0.01 in /  0.25 mm 0 W/m2
23:31 36.1 °F /  2.3 °C 35.3 °F /  1.8 °C 29.77 in /  1008 hPa ESE 1.0 mph /  1.6 km/h -999.0 mph /  -1607.7 km/h 97 % 0.01 in /  0.25 mm 0 W/m2
23:36 36.1 °F /  2.3 °C 35.3 °F /  1.8 °C 29.77 in /  1008 hPa ESE 1.0 mph /  1.6 km/h -999.0 mph /  -1607.7 km/h 97 % 0.01 in /  0.25 mm 0 W/m2
23:41 36.1 °F /  2.3 °C 35.3 °F /  1.8 °C 29.76 in /  1007.7 hPa East 1.0 mph /  1.6 km/h -999.0 mph /  -1607.7 km/h 97 % 0.01 in /  0.25 mm 0 W/m2
23:46 36.1 °F /  2.3 °C 35.3 °F /  1.8 °C 29.76 in /  1007.7 hPa East 1.0 mph /  1.6 km/h -999.0 mph /  -1607.7 km/h 97 % 0.01 in /  0.25 mm 0 W/m2
23:51 36.1 °F /  2.3 °C 35.3 °F /  1.8 °C 29.76 in /  1007.7 hPa East 1.0 mph /  1.6 km/h -999.0 mph /  -1607.7 km/h 97 % 0.01 in /  0.25 mm 0 W/m2
23:56 36.2 °F /  2.3 °C 35.4 °F /  1.9 °C 29.76 in /  1007.7 hPa Calm   -999.0 mph /  -1607.7 km/h 97 % 0.01 in /  0.25 mm 0 W/m2
Delerius-Weather
Compliments of Weather Underground - 2.25 mb

Data updates at regular intervals.